CheckWX is a tool to help pilots better visualize weather data.  It is not intended as a substitute for an official pre-flight weather briefing.

17:07:44 UTC

DTTL METAR
Kelibia Airport
Kelibia, Tunisia
Current

1 hour ago

DTTL 211600Z AUTO VRB04KT NCD 29/23 Q1019
Observed
Jul-21 @ 16:00 UTC
Wind
  • Variable at 4 KTS
Visibility
Cloud Levels
  • Clear skies
Temperature
29°C / 84°F
Dewpoint
23°C / 73°F
Heat Index
32°C / 90°F
Humidity
70%
Altimeter
30.09" Hg
Pressure
1018.92 hPa
Previous

2 hours ago

DTTL 211500Z AUTO VRB03KT NCD 30/23 Q1019
Observed
Jul-21 @ 15:00 UTC
Wind
  • Variable at 3 KTS
Visibility
Cloud Levels
  • Clear skies
Temperature
30°C / 86°F
Dewpoint
23°C / 73°F
Heat Index
34°C / 93°F
Humidity
66%
Altimeter
30.09" Hg
Pressure
1018.92 hPa
Previous

3 hours ago

DTTL 211400Z AUTO VRB05KT NCD 30/22 Q1019
Observed
Jul-21 @ 14:00 UTC
Wind
  • Variable at 5 KTS
Visibility
Cloud Levels
  • Clear skies
Temperature
30°C / 86°F
Dewpoint
22°C / 72°F
Heat Index
33°C / 92°F
Humidity
62%
Altimeter
30.09" Hg
Pressure
1018.92 hPa